createdAt,value
2018-06-04T00:01:03.379Z,21.70
2018-06-04T00:03:32.055Z,21.60
2018-06-04T00:06:00.561Z,21.60
2018-06-04T00:08:29.112Z,21.60
2018-06-04T00:10:57.748Z,21.50
2018-06-04T00:13:26.269Z,21.50
2018-06-04T00:15:54.764Z,21.50
2018-06-04T00:18:23.280Z,21.40
2018-06-04T00:25:48.780Z,21.40
2018-06-04T00:28:17.347Z,21.40
2018-06-04T00:30:45.920Z,21.30
2018-06-04T00:33:14.507Z,21.30
2018-06-04T00:35:42.990Z,21.20
2018-06-04T00:38:11.467Z,21.20
2018-06-04T00:40:40.119Z,21.20
2018-06-04T00:43:08.681Z,21.10
2018-06-04T00:45:37.293Z,21.00
2018-06-04T00:48:05.989Z,21.10
2018-06-04T00:50:34.659Z,21.10
2018-06-04T00:53:03.520Z,21.00
2018-06-04T00:55:38.014Z,21.00
2018-06-04T00:58:06.632Z,20.90
2018-06-04T01:00:35.347Z,20.80
2018-06-04T01:03:03.848Z,20.80
2018-06-04T01:05:32.384Z,20.80
2018-06-04T01:08:00.899Z,20.80
2018-06-04T01:10:29.433Z,20.70
2018-06-04T01:12:57.971Z,20.70
2018-06-04T01:15:26.517Z,20.70
2018-06-04T01:17:55.097Z,20.70
2018-06-04T01:20:23.589Z,20.80
2018-06-04T01:22:52.106Z,20.90
2018-06-04T01:25:20.672Z,20.80
2018-06-04T01:27:49.202Z,20.70
2018-06-04T01:30:18.113Z,20.70
2018-06-04T01:32:46.608Z,20.70
2018-06-04T01:35:15.160Z,20.80
2018-06-04T01:37:43.668Z,20.70
2018-06-04T01:40:12.255Z,20.60
2018-06-04T01:42:40.821Z,20.60
2018-06-04T01:45:09.319Z,20.60
2018-06-04T01:47:37.824Z,20.60
2018-06-04T01:50:06.335Z,20.60
2018-06-04T01:52:34.868Z,20.50
2018-06-04T01:55:03.391Z,20.50
2018-06-04T01:57:31.931Z,20.60
2018-06-04T02:00:00.454Z,20.50
2018-06-04T02:02:29.580Z,20.60
2018-06-04T02:04:58.086Z,20.50
2018-06-04T02:07:26.592Z,20.50
2018-06-04T02:09:55.111Z,20.40
2018-06-04T02:12:23.575Z,20.30
2018-06-04T02:14:52.071Z,20.30
2018-06-04T02:17:20.716Z,20.30
2018-06-04T02:19:49.217Z,20.30
2018-06-04T02:24:46.019Z,20.40
2018-06-04T02:27:14.570Z,20.40
2018-06-04T02:29:43.163Z,20.30
2018-06-04T02:32:11.760Z,20.30
2018-06-04T02:34:40.382Z,20.30
2018-06-04T02:37:08.940Z,20.30
2018-06-04T02:39:37.437Z,20.20
2018-06-04T02:42:06.075Z,20.20
2018-06-04T02:44:34.636Z,20.20
2018-06-04T02:47:03.291Z,20.20
2018-06-04T02:49:32.266Z,20.30
2018-06-04T02:52:00.831Z,20.10
2018-06-04T02:54:29.338Z,20.10
2018-06-04T02:56:57.894Z,20.10
2018-06-04T02:59:26.423Z,20.10
2018-06-04T03:01:54.986Z,20.10
2018-06-04T03:04:23.484Z,20.00
2018-06-04T03:06:52.046Z,20.00
2018-06-04T03:09:20.575Z,20.00
2018-06-04T03:11:49.049Z,19.90
2018-06-04T03:14:17.605Z,19.90
2018-06-04T03:16:47.179Z,19.90
2018-06-04T03:19:17.133Z,19.80
2018-06-04T03:21:45.883Z,19.80
2018-06-04T03:24:14.470Z,19.90
2018-06-04T03:26:43.051Z,19.80
2018-06-04T03:29:11.636Z,19.80
2018-06-04T03:31:40.180Z,19.90
2018-06-04T03:34:08.712Z,19.90
2018-06-04T03:36:37.287Z,19.90
2018-06-04T03:39:07.987Z,19.90
2018-06-04T03:41:36.635Z,19.90
2018-06-04T03:44:05.376Z,19.80
2018-06-04T03:46:33.910Z,19.90
2018-06-04T03:49:02.404Z,19.80
2018-06-04T03:51:30.943Z,19.80
2018-06-04T03:53:59.488Z,19.80
2018-06-04T03:56:28.017Z,19.80
2018-06-04T03:58:56.551Z,19.70
2018-06-04T04:01:25.112Z,19.80
2018-06-04T04:03:53.689Z,19.80
2018-06-04T04:06:22.225Z,19.80
2018-06-04T04:08:50.788Z,19.70
2018-06-04T04:11:19.367Z,19.70
2018-06-04T04:13:48.230Z,19.80
2018-06-04T04:16:17.699Z,19.80
2018-06-04T04:18:46.295Z,19.70
2018-06-04T04:21:14.868Z,19.70
2018-06-04T04:23:43.390Z,19.70
2018-06-04T04:26:11.949Z,19.80
2018-06-04T04:28:40.486Z,19.80
2018-06-04T04:31:09.136Z,19.70
2018-06-04T04:33:37.756Z,19.80
2018-06-04T04:36:06.272Z,19.80
2018-06-04T04:38:34.825Z,19.70
2018-06-04T04:41:03.403Z,19.80
2018-06-04T04:43:31.955Z,19.70
2018-06-04T04:46:00.518Z,19.70
2018-06-04T04:48:29.061Z,19.70
2018-06-04T04:50:57.643Z,19.70
2018-06-04T04:53:26.192Z,19.80
2018-06-04T04:55:55.120Z,19.80
2018-06-04T04:58:23.654Z,19.90
2018-06-04T05:00:52.288Z,19.90
2018-06-04T05:03:20.964Z,19.90
2018-06-04T05:08:17.835Z,20.00
2018-06-04T05:10:46.479Z,20.00
2018-06-04T05:13:15.093Z,20.10
2018-06-04T05:15:43.658Z,20.10
2018-06-04T05:18:12.187Z,20.20
2018-06-04T05:20:40.857Z,20.20
2018-06-04T05:23:09.341Z,20.30
2018-06-04T05:25:37.928Z,20.30
2018-06-04T05:30:34.774Z,20.50
2018-06-04T05:33:03.357Z,20.60
2018-06-04T05:35:31.904Z,20.70
2018-06-04T05:38:00.548Z,20.70
2018-06-04T05:40:29.156Z,20.70
2018-06-04T05:42:57.694Z,20.90
2018-06-04T05:45:26.361Z,22.40
2018-06-04T05:47:55.048Z,21.00
2018-06-04T05:50:23.702Z,21.20
2018-06-04T05:52:52.244Z,21.30
2018-06-04T05:57:49.349Z,21.30
2018-06-04T06:00:17.930Z,21.50
2018-06-04T06:02:46.514Z,21.60
2018-06-04T06:05:15.107Z,21.70
2018-06-04T06:07:43.618Z,21.70
2018-06-04T06:10:12.583Z,21.90
2018-06-04T06:12:41.180Z,22.00
2018-06-04T06:15:09.816Z,22.10
2018-06-04T06:17:38.383Z,22.20
2018-06-04T06:20:06.969Z,22.20
2018-06-04T06:22:35.572Z,22.30
2018-06-04T06:25:04.263Z,22.50
2018-06-04T06:27:33.006Z,22.60
2018-06-04T06:30:01.628Z,22.60
2018-06-04T06:32:30.585Z,22.70
2018-06-04T06:34:59.481Z,22.80
2018-06-04T06:37:28.117Z,23.00
2018-06-04T06:39:56.956Z,23.10
2018-06-04T06:42:25.967Z,23.20
2018-06-04T06:47:22.726Z,23.50
2018-06-04T06:49:51.413Z,23.80
2018-06-04T06:52:20.026Z,24.10
2018-06-04T06:54:49.384Z,24.30
2018-06-04T06:57:17.900Z,24.60
2018-06-04T06:59:46.418Z,24.90
2018-06-04T07:02:15.089Z,25.10
2018-06-04T07:04:43.909Z,25.30
2018-06-04T07:07:12.684Z,25.50
2018-06-04T07:09:41.265Z,25.70
2018-06-04T07:12:10.174Z,25.90
2018-06-04T07:14:38.800Z,26.10
2018-06-04T07:17:07.476Z,26.20
2018-06-04T07:19:36.123Z,26.30
2018-06-04T07:22:04.855Z,26.40
2018-06-04T07:24:33.570Z,26.60
2018-06-04T07:27:02.136Z,26.60
2018-06-04T07:29:30.810Z,26.60
2018-06-04T07:31:59.387Z,26.70
2018-06-04T07:39:24.810Z,26.90
2018-06-04T07:41:53.367Z,27.00
2018-06-04T07:44:22.097Z,27.10
2018-06-04T07:46:50.613Z,27.10
2018-06-04T07:49:19.175Z,27.20
2018-06-04T07:51:47.883Z,27.30
2018-06-04T07:54:16.675Z,27.20
2018-06-04T07:56:45.243Z,27.30
2018-06-04T07:59:13.836Z,27.30
2018-06-04T08:01:42.407Z,27.30
2018-06-04T08:04:11.191Z,27.50
2018-06-04T08:06:40.168Z,27.50
2018-06-04T08:09:08.920Z,27.60
2018-06-04T08:11:37.539Z,27.70
2018-06-04T08:14:06.227Z,27.70
2018-06-04T08:16:34.813Z,27.70
2018-06-04T08:21:32.838Z,27.70
2018-06-04T08:24:01.531Z,27.80
2018-06-04T08:26:30.215Z,27.70
2018-06-04T08:28:58.797Z,27.70
2018-06-04T08:31:27.595Z,27.70
2018-06-04T08:33:56.250Z,27.70
2018-06-04T08:38:53.116Z,27.80
2018-06-04T08:41:21.713Z,27.80
2018-06-04T08:43:50.463Z,27.90
2018-06-04T08:46:19.099Z,27.80
2018-06-04T08:48:47.640Z,27.80
2018-06-04T08:51:16.277Z,27.80
2018-06-04T08:53:45.066Z,27.70
2018-06-04T08:56:13.737Z,27.70
2018-06-04T08:58:42.795Z,27.60
2018-06-04T09:01:11.326Z,27.60
2018-06-04T09:03:39.962Z,27.60
2018-06-04T09:06:08.599Z,27.60
2018-06-04T09:08:37.200Z,27.50
2018-06-04T09:11:05.831Z,27.50
2018-06-04T09:13:34.963Z,27.50
2018-06-04T09:16:03.644Z,27.50
2018-06-04T09:18:32.581Z,27.50
2018-06-04T09:23:29.709Z,27.50
2018-06-04T09:25:58.462Z,27.60
2018-06-04T09:28:27.104Z,27.60
2018-06-04T09:30:55.759Z,27.60
2018-06-04T09:33:24.511Z,27.60
2018-06-04T09:35:53.232Z,27.50
2018-06-04T09:38:21.870Z,27.40
2018-06-04T09:40:50.437Z,27.30
2018-06-04T09:45:47.349Z,27.40
2018-06-04T09:48:16.282Z,27.30
2018-06-04T09:50:44.979Z,27.30
2018-06-04T09:53:13.820Z,27.30
2018-06-04T09:55:42.453Z,27.30
2018-06-04T09:58:11.245Z,27.30
2018-06-04T10:00:39.959Z,27.40
2018-06-04T10:03:08.843Z,27.30
2018-06-04T10:05:37.686Z,27.30
2018-06-04T10:08:06.343Z,27.30
2018-06-04T10:10:35.082Z,27.30
2018-06-04T10:13:03.704Z,27.30
2018-06-04T10:15:32.476Z,27.30
2018-06-04T10:18:01.107Z,27.30
2018-06-04T10:20:29.682Z,27.30
2018-06-04T10:22:58.263Z,27.40
2018-06-04T10:25:26.981Z,27.40
2018-06-04T10:27:55.760Z,27.40
2018-06-04T10:30:24.584Z,27.40
2018-06-04T10:32:53.189Z,27.40
2018-06-04T10:35:22.051Z,27.40
2018-06-04T10:37:50.698Z,27.30
2018-06-04T10:40:19.352Z,27.30
2018-06-04T10:42:48.376Z,27.30
2018-06-04T10:45:16.937Z,27.20
2018-06-04T10:47:45.584Z,27.10
2018-06-04T10:50:14.371Z,27.00
2018-06-04T10:52:43.033Z,27.00
2018-06-04T10:55:12.137Z,26.90
2018-06-04T10:57:40.880Z,26.90
2018-06-04T11:00:09.632Z,26.90
2018-06-04T11:02:38.288Z,26.90
2018-06-04T11:05:06.924Z,26.90
2018-06-04T11:07:36.058Z,27.00
2018-06-04T11:10:04.818Z,27.10
2018-06-04T11:12:34.044Z,27.10
2018-06-04T11:15:02.627Z,27.10
2018-06-04T11:17:31.512Z,27.20
2018-06-04T11:20:00.215Z,27.30
2018-06-04T11:22:28.860Z,27.30
2018-06-04T11:24:57.471Z,27.30
2018-06-04T11:27:26.307Z,27.40
2018-06-04T11:29:55.003Z,27.50
2018-06-04T11:32:23.594Z,27.50
2018-06-04T11:34:52.443Z,27.50
2018-06-04T11:37:21.010Z,27.50
2018-06-04T11:39:49.685Z,27.50
2018-06-04T11:42:18.385Z,27.50
2018-06-04T11:44:47.077Z,27.50
2018-06-04T11:47:15.859Z,27.50
2018-06-04T11:49:44.396Z,27.50
2018-06-04T11:52:13.143Z,27.50
2018-06-04T11:54:41.824Z,27.50
2018-06-04T11:57:10.865Z,27.50
2018-06-04T11:59:39.820Z,27.40
2018-06-04T12:02:08.488Z,27.40
2018-06-04T12:04:37.295Z,27.30
2018-06-04T12:07:06.134Z,27.20
2018-06-04T12:09:34.639Z,27.20
2018-06-04T12:12:03.421Z,27.20
2018-06-04T12:14:32.047Z,27.20
2018-06-04T12:17:00.635Z,27.20
2018-06-04T12:19:29.780Z,27.20
2018-06-04T12:21:58.534Z,27.20
2018-06-04T12:24:27.157Z,27.30
2018-06-04T12:26:55.994Z,27.40
2018-06-04T12:29:24.571Z,27.40
2018-06-04T12:31:53.155Z,27.40
2018-06-04T12:34:21.713Z,27.40
2018-06-04T12:36:50.387Z,27.30
2018-06-04T12:39:19.047Z,27.30
2018-06-04T12:41:47.766Z,27.40
2018-06-04T12:44:16.679Z,27.50
2018-06-04T12:46:45.328Z,27.50
2018-06-04T12:49:13.931Z,27.50
2018-06-04T12:51:42.659Z,27.50
2018-06-04T12:56:39.925Z,27.50
2018-06-04T12:59:08.514Z,27.50
2018-06-04T13:01:37.056Z,27.50
2018-06-04T13:04:05.743Z,27.50
2018-06-04T13:06:34.276Z,27.60
2018-06-04T13:09:02.914Z,27.60
2018-06-04T13:11:31.636Z,27.60
2018-06-04T13:14:00.573Z,27.60
2018-06-04T13:16:29.432Z,27.60
2018-06-04T13:18:58.053Z,27.60
2018-06-04T13:21:26.603Z,27.60
2018-06-04T13:26:23.498Z,27.70
2018-06-04T13:28:52.192Z,27.70
2018-06-04T13:31:20.822Z,27.70
2018-06-04T13:33:49.526Z,27.80
2018-06-04T13:36:18.205Z,27.80
2018-06-04T13:38:46.884Z,27.80
2018-06-04T13:41:15.571Z,27.70
2018-06-04T13:43:44.315Z,27.80
2018-06-04T13:46:12.890Z,27.90
2018-06-04T13:48:41.476Z,27.90
2018-06-04T13:51:10.056Z,28.00
2018-06-04T13:53:38.631Z,27.90
2018-06-04T13:56:07.290Z,28.00
2018-06-04T13:58:36.103Z,27.90
2018-06-04T14:01:04.913Z,28.00
2018-06-04T14:03:33.544Z,28.00
2018-06-04T14:06:02.137Z,27.90
2018-06-04T14:08:30.765Z,27.80
2018-06-04T14:10:59.509Z,27.80
2018-06-04T14:13:28.135Z,27.80
2018-06-04T14:15:56.669Z,27.80
2018-06-04T14:18:25.258Z,27.90
2018-06-04T14:20:53.875Z,27.90
2018-06-04T14:23:22.490Z,28.00
2018-06-04T14:25:51.052Z,28.10
2018-06-04T14:28:19.781Z,28.10
2018-06-04T14:30:48.382Z,28.00
2018-06-04T14:33:16.880Z,28.10
2018-06-04T14:35:45.818Z,28.20
2018-06-04T14:38:14.343Z,28.20
2018-06-04T14:40:42.903Z,28.20
2018-06-04T14:43:11.497Z,28.20
2018-06-04T14:45:40.074Z,28.20
2018-06-04T14:50:36.920Z,28.30
2018-06-04T14:53:05.460Z,28.30
2018-06-04T14:55:34.084Z,28.20
2018-06-04T14:58:02.786Z,28.20
2018-06-04T15:00:31.756Z,28.10
2018-06-04T15:03:00.530Z,28.10
2018-06-04T15:05:29.201Z,28.20
2018-06-04T15:07:58.603Z,28.30
2018-06-04T15:10:27.212Z,28.20
2018-06-04T15:12:56.078Z,28.20
2018-06-04T15:15:24.942Z,28.20
2018-06-04T15:17:53.962Z,28.20
2018-06-04T15:20:22.604Z,28.20
2018-06-04T15:25:19.600Z,28.10
2018-06-04T15:27:48.185Z,28.10
2018-06-04T15:30:16.866Z,28.20
2018-06-04T15:32:45.377Z,28.10
2018-06-04T15:35:14.066Z,28.10
2018-06-04T15:37:42.657Z,28.20
2018-06-04T15:40:11.430Z,28.20
2018-06-04T15:42:39.988Z,28.10
2018-06-04T15:45:08.654Z,28.10
2018-06-04T15:47:37.155Z,28.10
2018-06-04T15:50:05.844Z,28.00
2018-06-04T15:52:34.340Z,28.00
2018-06-04T15:55:04.000Z,28.10
2018-06-04T15:57:34.461Z,28.10
2018-06-04T16:00:03.374Z,28.10
2018-06-04T16:02:32.014Z,28.10
2018-06-04T16:05:01.106Z,28.20
2018-06-04T16:09:57.894Z,28.20
2018-06-04T16:12:26.493Z,28.20
2018-06-04T16:14:55.390Z,28.20
2018-06-04T16:17:23.915Z,26.70
2018-06-04T16:19:52.588Z,28.10
2018-06-04T16:22:21.244Z,28.10
2018-06-04T16:24:49.807Z,28.10
2018-06-04T16:27:18.318Z,28.00
2018-06-04T16:29:46.991Z,28.00
2018-06-04T16:32:15.555Z,28.10
2018-06-04T16:34:44.175Z,28.10
2018-06-04T16:37:12.924Z,28.10
2018-06-04T16:39:41.651Z,28.20
2018-06-04T16:42:10.325Z,28.20
2018-06-04T16:44:39.109Z,28.20
2018-06-04T16:47:07.715Z,28.20
2018-06-04T16:49:36.366Z,28.20
2018-06-04T16:52:05.152Z,28.10
2018-06-04T16:54:33.749Z,28.10
2018-06-04T16:57:02.340Z,28.10
2018-06-04T16:59:31.168Z,28.00
2018-06-04T17:02:00.117Z,27.90
2018-06-04T17:04:28.676Z,27.80
2018-06-04T17:06:57.235Z,27.80
2018-06-04T17:09:25.947Z,27.70
2018-06-04T17:11:54.598Z,27.70
2018-06-04T17:14:23.231Z,27.70
2018-06-04T17:16:51.831Z,27.60
2018-06-04T17:19:20.451Z,27.60
2018-06-04T17:21:49.097Z,27.60
2018-06-04T17:24:17.743Z,27.60
2018-06-04T17:26:46.465Z,27.50
2018-06-04T17:29:14.996Z,27.50
2018-06-04T17:31:43.635Z,27.40
2018-06-04T17:34:12.214Z,27.40
2018-06-04T17:36:40.852Z,27.30
2018-06-04T17:39:09.505Z,27.30
2018-06-04T17:41:38.154Z,27.20
2018-06-04T17:44:07.579Z,27.20
2018-06-04T17:46:36.115Z,27.10
2018-06-04T19:13:31.599Z,25.20
2018-06-04T19:16:00.207Z,25.50
2018-06-04T19:18:28.883Z,25.70
2018-06-04T19:21:12.100Z,25.80
2018-06-04T19:23:40.797Z,25.90
2018-06-04T19:26:09.330Z,25.90
2018-06-04T19:28:37.843Z,26.00
2018-06-04T19:31:06.556Z,26.10
2018-06-04T19:33:35.095Z,26.00
2018-06-04T19:36:03.773Z,26.10
2018-06-04T19:38:32.289Z,26.10
2018-06-04T19:41:15.409Z,26.10
2018-06-04T19:43:44.109Z,26.00
2018-06-04T19:46:12.607Z,26.00
2018-06-04T19:48:41.134Z,26.00
2018-06-04T19:51:09.700Z,26.00
2018-06-04T19:53:38.305Z,26.00
2018-06-04T19:56:06.868Z,26.00
2018-06-04T19:58:35.437Z,25.90
2018-06-04T20:01:04.053Z,25.90
2018-06-04T20:03:32.678Z,25.90
2018-06-04T20:06:01.324Z,25.90
2018-06-04T20:08:29.868Z,25.90
2018-06-04T20:10:58.611Z,25.90
2018-06-04T20:13:27.584Z,25.90
2018-06-04T20:15:56.172Z,25.90
2018-06-04T20:18:24.853Z,25.90
2018-06-04T20:20:53.510Z,25.80
2018-06-04T20:23:22.274Z,25.80
2018-06-04T20:25:50.931Z,25.80
2018-06-04T20:28:19.660Z,25.80
2018-06-04T20:30:48.257Z,25.80
2018-06-04T20:33:16.930Z,25.80
2018-06-04T20:35:45.440Z,25.70
2018-06-04T20:38:13.984Z,25.70
2018-06-04T20:40:42.623Z,25.70
2018-06-04T20:43:11.351Z,25.70
2018-06-04T20:45:40.032Z,25.60
2018-06-04T20:48:08.657Z,25.60
2018-06-04T20:50:37.221Z,25.50
2018-06-04T20:53:06.043Z,25.50
2018-06-04T20:55:35.001Z,25.40
2018-06-04T20:58:03.683Z,25.40
2018-06-04T21:00:32.311Z,25.40
2018-06-04T21:03:01.026Z,25.20
2018-06-04T21:05:29.800Z,25.20
2018-06-04T21:07:58.387Z,25.10
2018-06-04T21:10:27.141Z,25.20
2018-06-04T21:12:55.850Z,25.20
2018-06-04T21:15:24.461Z,25.10
2018-06-04T21:17:53.031Z,25.10
2018-06-04T21:20:21.592Z,25.10
2018-06-04T21:22:50.131Z,25.10
2018-06-04T21:25:18.761Z,25.00
2018-06-04T21:27:47.371Z,25.00
2018-06-04T21:30:15.904Z,25.00
2018-06-04T21:32:44.519Z,24.90
2018-06-04T21:35:13.036Z,24.90
2018-06-04T21:37:41.673Z,24.80
2018-06-04T21:40:10.386Z,24.70
2018-06-04T21:42:38.957Z,24.70
2018-06-04T21:45:07.561Z,24.60
2018-06-04T21:47:36.102Z,24.60
2018-06-04T21:50:05.107Z,24.50
2018-06-04T21:52:33.706Z,24.50
2018-06-04T21:55:02.252Z,24.50
2018-06-04T21:57:31.169Z,24.40
2018-06-04T21:59:59.748Z,24.40
2018-06-04T22:02:28.227Z,24.40
2018-06-04T22:04:56.851Z,24.40
2018-06-04T22:07:25.387Z,24.40
2018-06-04T22:09:53.995Z,24.40
2018-06-04T22:12:22.464Z,24.30
2018-06-04T22:14:51.048Z,24.20
2018-06-04T22:17:19.667Z,24.20
2018-06-04T22:19:48.671Z,24.20
2018-06-04T22:24:45.488Z,24.10
2018-06-04T22:27:14.104Z,24.00
2018-06-04T22:29:42.701Z,24.00
2018-06-04T22:32:11.347Z,24.00
2018-06-04T22:34:39.988Z,24.00
2018-06-04T22:37:22.917Z,24.00
2018-06-04T22:39:51.520Z,24.00
2018-06-04T22:42:20.033Z,23.90
2018-06-04T22:44:48.615Z,23.70
2018-06-04T22:47:17.199Z,23.70
2018-06-04T22:49:45.731Z,23.70
2018-06-04T22:52:14.315Z,23.60
2018-06-04T22:54:42.949Z,23.70
2018-06-04T22:57:11.544Z,23.70
2018-06-04T22:59:40.449Z,23.60
2018-06-04T23:02:09.040Z,23.60
2018-06-04T23:04:37.557Z,23.60
2018-06-04T23:07:06.060Z,23.50
2018-06-04T23:09:34.645Z,23.40
2018-06-04T23:12:03.180Z,23.30
2018-06-04T23:14:31.763Z,23.20
2018-06-04T23:17:00.317Z,23.20
2018-06-04T23:19:28.901Z,23.20
2018-06-04T23:21:57.499Z,23.10
2018-06-04T23:26:54.246Z,23.20
2018-06-04T23:29:22.861Z,23.10
2018-06-04T23:31:51.494Z,23.20
2018-06-04T23:34:19.998Z,23.20
2018-06-04T23:36:48.587Z,23.20
2018-06-04T23:39:17.186Z,23.10
2018-06-04T23:41:45.711Z,23.10
2018-06-04T23:44:14.216Z,23.00
2018-06-04T23:46:42.817Z,23.00
2018-06-04T23:49:11.367Z,23.00
2018-06-04T23:51:40.019Z,23.00
2018-06-04T23:54:08.570Z,23.00
2018-06-04T23:56:37.115Z,23.00
2018-06-04T23:59:05.718Z,22.90
